createdAt,value
2018-03-06T00:02:02.339Z,9.91
2018-03-06T00:04:34.308Z,9.86
2018-03-06T00:07:06.108Z,9.88
2018-03-06T00:09:47.576Z,9.82
2018-03-06T00:12:36.280Z,9.72
2018-03-06T00:15:25.799Z,9.83
2018-03-06T00:17:59.007Z,9.84
2018-03-06T00:20:31.719Z,9.80
2018-03-06T00:23:03.530Z,9.80
2018-03-06T00:25:35.085Z,9.74
2018-03-06T00:28:06.852Z,9.65
2018-03-06T00:30:39.788Z,9.49
2018-03-06T00:33:11.206Z,9.57
2018-03-06T00:35:45.190Z,9.52
2018-03-06T00:38:16.861Z,9.59
2018-03-06T00:40:49.435Z,9.52
2018-03-06T00:43:21.235Z,9.61
2018-03-06T00:45:59.414Z,9.46
2018-03-06T00:48:31.207Z,9.55
2018-03-06T00:51:03.507Z,9.54
2018-03-06T00:53:36.228Z,9.59
2018-03-06T00:56:08.077Z,9.55
2018-03-06T00:58:39.879Z,9.56
2018-03-06T01:01:12.009Z,9.60
2018-03-06T01:03:44.152Z,9.64
2018-03-06T01:06:15.995Z,9.65
2018-03-06T01:08:48.818Z,9.53
2018-03-06T01:11:21.443Z,9.17
2018-03-06T01:13:53.309Z,9.19
2018-03-06T01:16:27.435Z,9.38
2018-03-06T01:18:59.271Z,9.45
2018-03-06T01:21:31.667Z,9.53
2018-03-06T01:24:03.221Z,9.57
2018-03-06T01:26:34.953Z,9.36
2018-03-06T01:29:06.483Z,9.12
2018-03-06T01:31:38.591Z,9.19
2018-03-06T01:34:10.629Z,9.21
2018-03-06T01:36:42.434Z,9.03
2018-03-06T01:39:14.112Z,9.19
2018-03-06T01:41:45.695Z,9.29
2018-03-06T01:44:18.089Z,9.29
2018-03-06T01:46:50.376Z,9.26
2018-03-06T01:49:23.201Z,9.29
2018-03-06T01:51:59.730Z,9.24
2018-03-06T01:54:31.290Z,9.29
2018-03-06T01:57:03.543Z,9.30
2018-03-06T01:59:34.901Z,9.27
2018-03-06T02:02:06.475Z,9.34
2018-03-06T02:04:37.545Z,9.31
2018-03-06T02:07:08.574Z,9.37
2018-03-06T02:09:39.436Z,9.31
2018-03-06T02:12:11.697Z,9.38
2018-03-06T02:14:44.839Z,9.46
2018-03-06T02:17:18.511Z,9.40
2018-03-06T02:19:50.005Z,9.51
2018-03-06T02:22:21.807Z,9.63
2018-03-06T02:24:52.965Z,9.48
2018-03-06T02:27:25.087Z,9.30
2018-03-06T02:30:07.435Z,9.48
2018-03-06T02:32:39.863Z,9.69
2018-03-06T02:35:11.945Z,9.63
2018-03-06T02:37:43.372Z,9.40
2018-03-06T02:40:14.655Z,9.41
2018-03-06T02:42:45.746Z,9.55
2018-03-06T02:45:17.097Z,9.63
2018-03-06T02:47:48.073Z,9.61
2018-03-06T02:50:19.533Z,9.45
2018-03-06T02:57:24.423Z,9.62
2018-03-06T02:59:55.765Z,9.50
2018-03-06T03:02:28.166Z,9.58
2018-03-06T03:05:00.152Z,9.49
2018-03-06T03:07:30.919Z,9.59
2018-03-06T03:10:02.247Z,9.45
2018-03-06T03:12:33.312Z,9.45
2018-03-06T03:15:06.292Z,9.63
2018-03-06T03:17:38.057Z,9.67
2018-03-06T03:20:08.869Z,9.73
2018-03-06T03:22:39.632Z,9.79
2018-03-06T03:25:11.554Z,9.80
2018-03-06T03:27:42.143Z,9.79
2018-03-06T03:30:16.068Z,9.73
2018-03-06T03:32:46.673Z,9.63
2018-03-06T03:35:17.693Z,9.58
2018-03-06T03:37:48.675Z,9.58
2018-03-06T03:40:24.805Z,9.63
2018-03-06T03:42:58.211Z,9.62
2018-03-06T03:45:30.399Z,9.63
2018-03-06T03:48:11.318Z,9.28
2018-03-06T03:50:47.461Z,9.58
2018-03-06T03:53:34.773Z,9.77
2018-03-06T03:56:05.762Z,9.84
2018-03-06T03:58:36.307Z,9.83
2018-03-06T04:01:07.223Z,9.65
2018-03-06T04:03:38.005Z,9.69
2018-03-06T04:06:09.209Z,9.55
2018-03-06T04:08:39.791Z,9.55
2018-03-06T04:11:11.105Z,9.46
2018-03-06T04:13:42.618Z,9.42
2018-03-06T04:16:14.320Z,9.33
2018-03-06T04:18:45.960Z,9.31
2018-03-06T04:21:18.420Z,9.42
2018-03-06T04:23:49.074Z,9.40
2018-03-06T04:26:21.595Z,9.40
2018-03-06T04:28:52.460Z,9.48
2018-03-06T04:31:23.478Z,9.53
2018-03-06T04:33:55.413Z,9.45
2018-03-06T04:36:27.687Z,9.33
2018-03-06T04:38:59.144Z,9.29
2018-03-06T04:41:29.949Z,9.24
2018-03-06T04:44:01.983Z,9.22
2018-03-06T04:46:33.810Z,9.38
2018-03-06T04:49:06.670Z,9.41
2018-03-06T04:54:45.987Z,9.26
2018-03-06T04:57:23.776Z,9.28
2018-03-06T04:59:54.369Z,9.34
2018-03-06T05:02:27.229Z,9.30
2018-03-06T05:05:03.584Z,9.40
2018-03-06T05:07:41.531Z,9.35
2018-03-06T05:10:14.686Z,9.29
2018-03-06T05:12:48.304Z,9.33
2018-03-06T05:15:19.814Z,9.43
2018-03-06T05:17:51.642Z,9.50
2018-03-06T05:20:22.922Z,9.41
2018-03-06T05:22:53.850Z,9.44
2018-03-06T05:25:24.911Z,9.50
2018-03-06T05:27:57.620Z,9.46
2018-03-06T05:30:28.708Z,9.43
2018-03-06T05:33:00.140Z,9.35
2018-03-06T05:35:31.419Z,9.56
2018-03-06T05:38:02.851Z,9.48
2018-03-06T05:40:34.327Z,9.68
2018-03-06T05:43:05.293Z,9.58
2018-03-06T05:45:37.399Z,9.65
2018-03-06T05:48:08.650Z,9.64
2018-03-06T05:50:39.746Z,9.60
2018-03-06T05:53:11.862Z,9.75
2018-03-06T05:55:43.165Z,10.00
2018-03-06T05:58:15.630Z,9.85
2018-03-06T06:00:49.181Z,9.67
2018-03-06T06:03:20.553Z,9.72
2018-03-06T06:05:51.964Z,9.71
2018-03-06T06:08:23.979Z,9.76
2018-03-06T06:10:55.693Z,9.87
2018-03-06T06:13:28.943Z,9.87
2018-03-06T06:16:01.475Z,9.99
2018-03-06T06:18:33.287Z,9.95
2018-03-06T06:21:04.620Z,9.98
2018-03-06T06:23:38.720Z,9.90
2018-03-06T06:26:13.104Z,9.91
2018-03-06T06:28:46.203Z,9.96
2018-03-06T06:31:18.939Z,9.98
2018-03-06T06:33:51.051Z,10.06
2018-03-06T06:36:22.249Z,10.05
2018-03-06T06:38:53.898Z,10.07
2018-03-06T06:41:27.220Z,9.97
2018-03-06T06:43:59.336Z,9.85
2018-03-06T06:46:42.447Z,10.00
2018-03-06T06:52:02.479Z,10.05
2018-03-06T06:54:34.731Z,10.11
2018-03-06T06:57:08.126Z,10.13
2018-03-06T06:59:40.399Z,10.24
2018-03-06T07:02:13.592Z,10.08
2018-03-06T07:04:45.178Z,10.05
2018-03-06T07:07:17.095Z,10.15
2018-03-06T07:09:50.777Z,9.97
2018-03-06T07:12:23.222Z,10.11
2018-03-06T07:15:18.427Z,10.02
2018-03-06T07:17:50.940Z,10.02
2018-03-06T07:20:22.496Z,10.13
2018-03-06T07:22:54.382Z,10.03
2018-03-06T07:25:27.028Z,10.24
2018-03-06T07:27:58.874Z,10.03
2018-03-06T07:30:30.428Z,10.20
2018-03-06T07:33:01.948Z,10.23
2018-03-06T07:35:33.298Z,10.30
2018-03-06T07:38:05.174Z,10.32
2018-03-06T07:40:36.384Z,10.30
2018-03-06T07:43:08.511Z,10.21
2018-03-06T07:45:40.889Z,10.23
2018-03-06T07:50:42.014Z,10.36
2018-03-06T07:53:13.814Z,10.47
2018-03-06T07:55:48.116Z,10.66
2018-03-06T07:58:19.661Z,10.75
2018-03-06T08:00:52.482Z,10.38
2018-03-06T08:03:23.980Z,10.71
2018-03-06T08:05:55.889Z,10.84
2018-03-06T08:08:28.184Z,10.92
2018-03-06T08:11:00.290Z,11.05
2018-03-06T08:13:31.640Z,11.25
2018-03-06T08:16:04.294Z,11.17
2018-03-06T08:18:37.128Z,11.37
2018-03-06T08:21:09.066Z,11.43
2018-03-06T08:23:40.607Z,11.23
2018-03-06T08:26:15.411Z,11.32
2018-03-06T08:28:57.341Z,11.01
2018-03-06T08:31:30.392Z,11.65
2018-03-06T08:34:01.611Z,11.83
2018-03-06T08:36:34.481Z,12.11
2018-03-06T08:39:07.184Z,12.52
2018-03-06T08:41:42.224Z,12.41
2018-03-06T08:44:13.936Z,12.92
2018-03-06T08:46:46.332Z,13.35
2018-03-06T08:49:17.622Z,13.72
2018-03-06T08:51:50.061Z,14.14
2018-03-06T08:54:21.592Z,13.99
2018-03-06T08:56:53.206Z,14.82
2018-03-06T08:59:24.681Z,14.87
2018-03-06T09:01:57.517Z,15.44
2018-03-06T09:04:29.435Z,15.63
2018-03-06T09:07:01.612Z,15.50
2018-03-06T09:09:32.978Z,15.11
2018-03-06T09:12:05.409Z,14.55
2018-03-06T09:14:38.158Z,15.07
2018-03-06T09:17:10.477Z,14.94
2018-03-06T09:19:42.418Z,15.17
2018-03-06T09:22:14.240Z,14.51
2018-03-06T09:24:47.064Z,14.72
2018-03-06T09:27:18.771Z,14.65
2018-03-06T09:29:51.046Z,14.84
2018-03-06T09:32:23.799Z,15.12
2018-03-06T09:34:55.009Z,15.24
2018-03-06T09:38:09.661Z,15.42
2018-03-06T09:40:41.872Z,13.96
2018-03-06T09:43:14.659Z,14.06
2018-03-06T09:45:47.957Z,15.32
2018-03-06T09:48:19.739Z,15.93
2018-03-06T09:50:51.723Z,16.13
2018-03-06T09:53:35.635Z,16.77
2018-03-06T09:56:08.791Z,17.30
2018-03-06T09:58:41.146Z,16.79
2018-03-06T10:01:13.624Z,16.88
2018-03-06T10:03:45.681Z,17.61
2018-03-06T10:06:17.340Z,17.77
2018-03-06T10:11:28.878Z,17.86
2018-03-06T10:14:00.125Z,17.38
2018-03-06T10:16:32.412Z,17.31
2018-03-06T10:19:08.772Z,18.61
2018-03-06T10:21:40.870Z,17.90
2018-03-06T10:24:15.734Z,17.56
2018-03-06T10:26:48.580Z,18.41
2018-03-06T10:29:20.100Z,18.76
2018-03-06T10:31:54.082Z,18.15
2018-03-06T10:34:26.145Z,18.32
2018-03-06T10:36:59.135Z,16.72
2018-03-06T10:39:32.391Z,17.91
2018-03-06T10:42:14.047Z,17.43
2018-03-06T10:44:51.984Z,18.26
2018-03-06T10:47:25.276Z,17.76
2018-03-06T10:50:11.176Z,17.98
2018-03-06T10:52:42.930Z,18.01
2018-03-06T10:55:21.867Z,18.40
2018-03-06T10:57:55.041Z,19.11
2018-03-06T11:00:33.359Z,18.58
2018-03-06T11:03:12.677Z,17.34
2018-03-06T11:05:55.888Z,18.88
2018-03-06T11:08:30.160Z,18.85
2018-03-06T11:11:04.922Z,19.11
2018-03-06T11:13:39.162Z,19.30
2018-03-06T11:16:14.569Z,18.26
2018-03-06T11:18:47.356Z,18.51
2018-03-06T11:21:26.256Z,17.76
2018-03-06T11:24:08.582Z,18.37
2018-03-06T11:26:40.852Z,18.92
2018-03-06T11:29:12.636Z,19.34
2018-03-06T11:31:44.820Z,18.89
2018-03-06T11:34:16.805Z,19.24
2018-03-06T11:36:49.276Z,19.25
2018-03-06T11:39:20.435Z,18.67
2018-03-06T11:41:52.859Z,18.33
2018-03-06T11:44:27.336Z,18.50
2018-03-06T11:46:58.744Z,18.24
2018-03-06T11:52:19.270Z,18.65
2018-03-06T11:54:54.163Z,18.56
2018-03-06T11:57:25.581Z,18.64
2018-03-06T11:59:57.965Z,18.98
2018-03-06T12:02:30.901Z,19.25
2018-03-06T12:05:02.581Z,19.75
2018-03-06T12:07:36.151Z,19.79
2018-03-06T12:10:07.743Z,20.16
2018-03-06T12:12:39.187Z,19.98
2018-03-06T12:15:13.677Z,18.35
2018-03-06T12:17:46.108Z,18.63
2018-03-06T12:20:17.944Z,18.70
2018-03-06T12:22:49.554Z,19.05
2018-03-06T12:25:22.693Z,18.99
2018-03-06T12:27:59.883Z,19.22
2018-03-06T12:30:34.604Z,18.57
2018-03-06T12:33:06.840Z,18.77
2018-03-06T12:35:39.440Z,18.99
2018-03-06T12:38:12.658Z,19.05
2018-03-06T12:40:44.363Z,18.87
2018-03-06T12:43:16.618Z,18.44
2018-03-06T12:45:53.456Z,18.41
2018-03-06T12:48:25.277Z,18.82
2018-03-06T12:50:57.761Z,18.68
2018-03-06T12:53:31.104Z,17.72
2018-03-06T12:56:04.045Z,18.65
2018-03-06T12:58:36.129Z,19.17
2018-03-06T13:01:08.548Z,19.43
2018-03-06T13:03:40.510Z,19.75
2018-03-06T13:06:13.138Z,19.86
2018-03-06T13:08:45.259Z,19.67
2018-03-06T13:11:16.136Z,19.30
2018-03-06T13:13:47.444Z,19.52
2018-03-06T13:16:19.018Z,18.65
2018-03-06T13:18:50.475Z,18.83
2018-03-06T13:24:05.602Z,19.40
2018-03-06T13:26:38.743Z,19.43
2018-03-06T13:29:11.817Z,19.58
2018-03-06T13:31:44.071Z,19.54
2018-03-06T13:34:20.430Z,19.56
2018-03-06T13:36:52.005Z,19.34
2018-03-06T13:39:23.541Z,18.95
2018-03-06T13:41:55.409Z,18.76
2018-03-06T13:44:27.611Z,19.75
2018-03-06T13:46:59.983Z,20.17
2018-03-06T13:49:31.940Z,19.82
2018-03-06T13:54:47.846Z,20.01
2018-03-06T13:57:21.753Z,19.89
2018-03-06T13:59:53.527Z,19.65
2018-03-06T14:02:24.922Z,19.29
2018-03-06T14:04:56.687Z,19.40
2018-03-06T14:07:41.623Z,19.79
2018-03-06T14:10:29.903Z,20.11
2018-03-06T14:13:06.504Z,20.07
2018-03-06T14:15:39.156Z,19.26
2018-03-06T14:18:12.461Z,19.04
2018-03-06T14:20:43.841Z,19.14
2018-03-06T14:23:21.400Z,19.04
2018-03-06T14:25:55.292Z,18.75
2018-03-06T14:28:27.512Z,18.65
2018-03-06T14:31:01.734Z,18.42
2018-03-06T14:33:32.876Z,18.43
2018-03-06T14:36:06.203Z,18.35
2018-03-06T14:38:37.542Z,18.50
2018-03-06T14:41:08.994Z,18.28
2018-03-06T14:43:41.061Z,17.94
2018-03-06T14:46:13.529Z,17.89
2018-03-06T14:48:44.804Z,17.90
2018-03-06T14:51:15.899Z,17.78
2018-03-06T14:56:27.423Z,17.96
2018-03-06T14:59:01.300Z,17.65
2018-03-06T15:01:33.296Z,17.64
2018-03-06T15:04:05.356Z,17.85
2018-03-06T15:06:37.541Z,17.92
2018-03-06T15:09:09.402Z,17.77
2018-03-06T15:11:47.487Z,17.73
2018-03-06T15:14:22.162Z,17.70
2018-03-06T15:16:55.285Z,17.83
2018-03-06T15:19:28.433Z,17.49
2018-03-06T15:22:01.873Z,17.18
2018-03-06T15:24:35.380Z,17.04
2018-03-06T15:27:07.472Z,17.21
2018-03-06T15:29:40.298Z,17.42
2018-03-06T15:32:12.264Z,17.29
2018-03-06T15:34:47.134Z,17.12
2018-03-06T15:37:23.528Z,16.69
2018-03-06T15:39:56.700Z,16.57
2018-03-06T15:42:28.912Z,16.54
2018-03-06T15:45:00.807Z,16.62
2018-03-06T15:47:34.449Z,16.65
2018-03-06T15:50:07.240Z,16.64
2018-03-06T15:52:42.181Z,16.59
2018-03-06T15:55:14.933Z,16.45
2018-03-06T15:57:53.305Z,16.52
2018-03-06T16:03:11.405Z,16.11
2018-03-06T16:05:58.385Z,16.10
2018-03-06T16:08:30.856Z,16.23
2018-03-06T16:11:02.353Z,16.29
2018-03-06T16:13:33.778Z,16.28
2018-03-06T16:16:05.693Z,16.22
2018-03-06T16:18:38.465Z,16.01
2018-03-06T16:21:10.248Z,15.77
2018-03-06T16:23:43.494Z,15.72
2018-03-06T16:26:18.460Z,15.71
2018-03-06T16:28:51.677Z,15.80
2018-03-06T16:33:46.781Z,15.77
2018-03-06T16:36:18.716Z,15.76
2018-03-06T16:38:51.152Z,15.79
2018-03-06T16:41:22.591Z,15.59
2018-03-06T16:43:54.316Z,15.52
2018-03-06T16:46:28.691Z,15.36
2018-03-06T16:49:04.157Z,15.39
2018-03-06T16:51:36.409Z,15.29
2018-03-06T16:54:30.932Z,15.12
2018-03-06T16:57:10.844Z,15.18
2018-03-06T16:59:44.643Z,15.31
2018-03-06T17:02:26.532Z,15.36
2018-03-06T17:04:59.820Z,15.42
2018-03-06T17:07:31.629Z,15.48
2018-03-06T17:10:07.339Z,15.22
2018-03-06T17:12:39.549Z,15.28
2018-03-06T17:21:55.237Z,15.33
2018-03-06T17:24:34.610Z,15.39
2018-03-06T17:27:08.883Z,15.25
2018-03-06T17:29:44.888Z,15.10
2018-03-06T17:32:22.598Z,14.82
2018-03-06T17:34:55.520Z,14.81
2018-03-06T17:37:42.832Z,14.91
2018-03-06T17:40:16.292Z,14.87
2018-03-06T17:45:27.938Z,14.95
2018-03-06T17:48:12.632Z,14.94
2018-03-06T17:50:48.960Z,14.93
2018-03-06T17:53:22.797Z,15.08
2018-03-06T17:55:54.657Z,14.97
2018-03-06T17:58:26.313Z,14.96
2018-03-06T18:01:02.420Z,15.02
2018-03-06T18:03:34.428Z,14.86
2018-03-06T18:06:13.823Z,14.74
2018-03-06T18:08:55.166Z,14.60
2018-03-06T18:11:37.029Z,14.54
2018-03-06T18:17:15.545Z,14.63
2018-03-06T18:19:49.534Z,14.35
2018-03-06T18:22:32.137Z,14.63
2018-03-06T18:25:10.079Z,14.57
2018-03-06T18:27:45.698Z,14.57
2018-03-06T18:30:19.147Z,14.56
2018-03-06T18:32:50.726Z,14.57
2018-03-06T18:35:23.989Z,14.55
2018-03-06T18:37:56.648Z,14.55
2018-03-06T18:40:30.761Z,14.57
2018-03-06T18:43:03.249Z,14.51
2018-03-06T18:45:37.051Z,14.44
2018-03-06T18:48:14.116Z,14.67
2018-03-06T18:53:54.778Z,14.80
2018-03-06T18:56:34.398Z,14.82
2018-03-06T18:59:06.302Z,14.71
2018-03-06T19:02:45.680Z,14.73
2018-03-06T19:06:25.356Z,14.51
2018-03-06T19:08:56.917Z,14.69
2018-03-06T19:11:28.515Z,14.58
2018-03-06T19:14:00.366Z,14.55
2018-03-06T19:16:34.151Z,14.53
2018-03-06T19:19:06.731Z,14.17
2018-03-06T19:21:40.115Z,14.45
2018-03-06T19:24:19.884Z,14.44
2018-03-06T19:26:51.640Z,14.44
2018-03-06T19:29:39.154Z,14.54
2018-03-06T19:32:31.657Z,14.37
2018-03-06T19:35:05.853Z,14.37
2018-03-06T19:37:37.291Z,14.38
2018-03-06T19:40:12.656Z,14.37
2018-03-06T19:42:44.239Z,14.41
2018-03-06T19:45:22.342Z,14.53
2018-03-06T19:47:53.726Z,14.48
2018-03-06T19:50:31.258Z,14.63
2018-03-06T19:53:18.756Z,14.65
2018-03-06T19:55:49.615Z,14.66
2018-03-06T19:58:21.989Z,14.60
2018-03-06T20:00:57.010Z,14.59
2018-03-06T20:03:28.848Z,14.52
2018-03-06T20:06:00.392Z,14.51
2018-03-06T20:08:31.329Z,14.61
2018-03-06T20:11:02.793Z,14.61
2018-03-06T20:13:34.773Z,14.46
2018-03-06T20:16:07.025Z,14.26
2018-03-06T20:18:37.927Z,14.27
2018-03-06T20:21:09.336Z,14.31
2018-03-06T20:23:40.505Z,14.32
2018-03-06T20:26:12.714Z,14.22
2018-03-06T20:28:43.467Z,14.32
2018-03-06T20:33:22.666Z,14.26
2018-03-06T20:35:56.248Z,14.31
2018-03-06T20:38:31.177Z,14.35
2018-03-06T20:41:02.459Z,14.33
2018-03-06T20:43:33.314Z,14.32
2018-03-06T20:46:08.948Z,14.44
2018-03-06T20:51:17.879Z,14.46
2018-03-06T20:56:00.060Z,14.53
2018-03-06T20:58:31.666Z,14.35
2018-03-06T21:01:04.615Z,14.28
2018-03-06T21:03:35.916Z,14.29
2018-03-06T21:06:06.964Z,14.30
2018-03-06T21:08:39.777Z,14.28
2018-03-06T21:11:11.216Z,14.37
2018-03-06T21:13:43.298Z,14.35
2018-03-06T21:16:14.398Z,14.33
2018-03-06T21:18:45.765Z,14.15
2018-03-06T21:21:17.345Z,14.04
2018-03-06T21:23:49.445Z,14.03
2018-03-06T21:26:20.718Z,14.00
2018-03-06T21:28:51.583Z,13.98
2018-03-06T21:31:23.439Z,13.91
2018-03-06T21:33:54.547Z,14.00
2018-03-06T21:36:25.590Z,14.08
2018-03-06T21:38:56.962Z,14.13
2018-03-06T21:41:28.075Z,14.10
2018-03-06T21:43:59.686Z,14.05
2018-03-06T21:46:32.264Z,14.05
2018-03-06T21:49:04.323Z,13.85
2018-03-06T21:51:36.453Z,13.75
2018-03-06T21:54:08.841Z,13.73
2018-03-06T21:56:41.554Z,13.58
2018-03-06T21:59:12.690Z,13.62
2018-03-06T22:01:45.610Z,13.69
2018-03-06T22:04:16.504Z,13.66
2018-03-06T22:06:47.916Z,13.59
2018-03-06T22:09:20.399Z,13.63
2018-03-06T22:11:52.712Z,13.63
2018-03-06T22:14:23.710Z,13.70
2018-03-06T22:16:55.055Z,13.70
2018-03-06T22:19:27.690Z,13.68
2018-03-06T22:21:59.625Z,13.74
2018-03-06T22:24:31.506Z,13.74
2018-03-06T22:27:02.651Z,13.78
2018-03-06T22:29:39.879Z,13.69
2018-03-06T22:32:12.538Z,13.64
2018-03-06T22:34:44.602Z,13.72
2018-03-06T22:37:15.593Z,13.58
2018-03-06T22:39:46.627Z,13.69
2018-03-06T22:42:18.518Z,13.67
2018-03-06T22:44:50.166Z,13.74
2018-03-06T22:47:21.588Z,13.70
2018-03-06T22:49:52.922Z,13.72
2018-03-06T22:52:23.902Z,13.61
2018-03-06T22:54:55.412Z,13.47
2018-03-06T22:57:27.855Z,13.51
2018-03-06T22:59:59.850Z,13.62
2018-03-06T23:02:31.707Z,13.65
2018-03-06T23:05:04.581Z,13.66
2018-03-06T23:07:36.578Z,13.72
2018-03-06T23:10:07.821Z,13.74
2018-03-06T23:12:38.910Z,13.65
2018-03-06T23:15:12.793Z,13.63
2018-03-06T23:17:44.797Z,13.66
2018-03-06T23:20:16.102Z,13.72
2018-03-06T23:22:48.084Z,13.76
2018-03-06T23:25:19.914Z,13.73
2018-03-06T23:27:52.176Z,13.61
2018-03-06T23:30:23.323Z,13.55
2018-03-06T23:32:54.493Z,13.49
2018-03-06T23:35:25.544Z,13.49
2018-03-06T23:37:56.711Z,13.50
2018-03-06T23:40:29.777Z,13.58
2018-03-06T23:43:02.205Z,13.56
2018-03-06T23:45:36.256Z,13.65
2018-03-06T23:48:07.778Z,13.67
2018-03-06T23:50:39.376Z,13.73
2018-03-06T23:53:11.517Z,13.72
2018-03-06T23:55:42.922Z,13.46
2018-03-06T23:58:14.954Z,13.39
